PWSweather.com
Personal Weather Stations
Station Observations
KTXDECATUR
Wildwood, Decatur, TX 76234

WildwoodDecatur, TX 76234

Lat: 33.2634, Lon: -97.6651

Elevation: 800

Station Type: Davis Vantage Pro 2

http://weather.wildwoodnaturist.com

Latest ConditionsUpdated 5:50:01 PM CST Sunday, Nov 18, 2018
Currently Today's Max Today's Min Today's Average
Temperature 37.8°F3.2°C 42.6°F5.9°C 36.2°F2.3°C 38.6°F3.7°C
Dew Point 29.9°F-1.2°C 36.8°F2.7°C 29.7°F-1.3°C 32.7°F0.4°C
Winds 5.8 mph N9.3 kmh N 16.1 mph -25.9 kmh - - 10.4 mph 16.7 kmh
Wind Gusts 6.9 mph11.1 kmh 23.0 mph37.0 kmh - -
Humidity 73% 85% 72% 79%
Pressure 30.25 in1024.4 mb 30.36 in1028.1 mb 30.13 in1020.3 mb -
Hour Temp Dew Point Humidity Winds Wind Gusts Pressure Precip Precip Rate Daily Precip Total
05:50 PM 37.8°F3.2°C 29.9°F-1.2°C 73% 5.8 mph N9.3 kmh N 6.9 mph11.1 kmh 30.25 in1024.4 mb - 0.00 in0.0 mm 0.00 in0.0 mm
05:45 PM 37.9°F3.3°C 29.7°F-1.3°C 72% 5.8 mph N9.3 kmh N 8.1 mph13.0 kmh 30.26 in1024.7 mb - 0.00 in0.0 mm 0.00 in0.0 mm
05:40 PM 38.1°F3.4°C 30.2°F-1.0°C 73% 5.8 mph NNW9.3 kmh NNW 8.1 mph13.0 kmh 30.26 in1024.7 mb - 0.00 in0.0 mm 0.00 in0.0 mm
05:30 PM 38.1°F3.4°C 30.2°F-1.0°C 73% 4.6 mph N7.4 kmh N 8.1 mph13.0 kmh 30.26 in1024.7 mb - 0.00 in0.0 mm 0.00 in0.0 mm
05:20 PM 38.2°F3.4°C 29.9°F-1.2°C 72% 8.1 mph NW13.0 kmh NW 11.5 mph18.5 kmh 30.26 in1024.7 mb - 0.00 in0.0 mm 0.00 in0.0 mm
05:15 PM 38.2°F3.4°C 30.0°F-1.1°C 72% 9.2 mph NNW14.8 kmh NNW 11.5 mph18.5 kmh 30.26 in1024.7 mb - 0.00 in0.0 mm 0.00 in0.0 mm
05:10 PM 38.2°F3.4°C 30.0°F-1.1°C 72% 10.4 mph N16.7 kmh N 9.2 mph14.8 kmh 30.26 in1024.7 mb - 0.00 in0.0 mm 0.00 in0.0 mm
05:00 PM 38.4°F3.6°C 30.2°F-1.0°C 72% 10.4 mph NNW16.7 kmh NNW 12.7 mph20.4 kmh 30.26 in1024.7 mb - 0.00 in0.0 mm 0.00 in0.0 mm
04:50 PM 38.5°F3.6°C 30.3°F-0.9°C 72% 6.9 mph NW11.1 kmh NW 6.9 mph11.1 kmh 30.26 in1024.7 mb - 0.00 in0.0 mm 0.00 in0.0 mm
04:45 PM 38.5°F3.6°C 30.3°F-0.9°C 72% 6.9 mph NNW11.1 kmh NNW 9.2 mph14.8 kmh 30.26 in1024.7 mb - 0.00 in0.0 mm 0.00 in0.0 mm
04:40 PM 38.5°F3.6°C 30.3°F-0.9°C 72% 11.5 mph NNW18.5 kmh NNW 13.8 mph22.2 kmh 30.26 in1024.7 mb - 0.00 in0.0 mm 0.00 in0.0 mm
04:30 PM 38.5°F3.6°C 30.2°F-1.0°C 72% 8.1 mph NNW13.0 kmh NNW 11.5 mph18.5 kmh 30.26 in1024.7 mb - 0.00 in0.0 mm 0.00 in0.0 mm
04:20 PM 38.5°F3.6°C 30.3°F-0.9°C 72% 8.1 mph NNW13.0 kmh NNW 11.5 mph18.5 kmh 30.26 in1024.7 mb - 0.00 in0.0 mm 0.00 in0.0 mm
04:15 PM 38.6°F3.7°C 30.4°F-0.9°C 72% 8.1 mph N13.0 kmh N 10.4 mph16.7 kmh 30.26 in1024.7 mb - 0.00 in0.0 mm 0.00 in0.0 mm
04:10 PM 38.5°F3.6°C 30.3°F-0.9°C 72% 10.4 mph NNW16.7 kmh NNW 10.4 mph16.7 kmh 30.26 in1024.7 mb - 0.00 in0.0 mm 0.00 in0.0 mm
04:00 PM 38.8°F3.8°C 30.5°F-0.8°C 72% 9.2 mph NW14.8 kmh NW 10.4 mph16.7 kmh 30.26 in1024.7 mb - 0.00 in0.0 mm 0.00 in0.0 mm
03:50 PM 38.8°F3.8°C 30.9°F-0.6°C 73% 6.9 mph NNW11.1 kmh NNW 8.1 mph13.0 kmh 30.27 in1025.1 mb - 0.00 in0.0 mm 0.00 in0.0 mm
03:45 PM 38.8°F3.8°C 30.9°F-0.6°C 73% 8.1 mph NNW13.0 kmh NNW 9.2 mph14.8 kmh 30.27 in1025.1 mb - 0.00 in0.0 mm 0.00 in0.0 mm
03:40 PM 38.7°F3.7°C 30.8°F-0.7°C 73% 6.9 mph NW11.1 kmh NW 10.4 mph16.7 kmh 30.27 in1025.1 mb - 0.00 in0.0 mm 0.00 in0.0 mm
03:30 PM 39.0°F3.9°C 31.1°F-0.5°C 73% 6.9 mph NW11.1 kmh NW 13.8 mph22.2 kmh 30.27 in1025.1 mb - 0.00 in0.0 mm 0.00 in0.0 mm
03:20 PM 38.8°F3.8°C 30.9°F-0.6°C 73% 6.9 mph N11.1 kmh N 11.5 mph18.5 kmh 30.27 in1025.1 mb - 0.00 in0.0 mm 0.00 in0.0 mm
03:15 PM 38.9°F3.8°C 31.0°F-0.6°C 73% 8.1 mph NNW13.0 kmh NNW 11.5 mph18.5 kmh 30.27 in1025.1 mb - 0.00 in0.0 mm 0.00 in0.0 mm
03:10 PM 39.1°F3.9°C 31.1°F-0.5°C 73% 6.9 mph NW11.1 kmh NW 10.4 mph16.7 kmh 30.27 in1025.1 mb - 0.00 in0.0 mm 0.00 in0.0 mm
03:00 PM 39.1°F3.9°C 31.2°F-0.4°C 73% 6.9 mph NW11.1 kmh NW 8.1 mph13.0 kmh 30.27 in1025.1 mb - 0.00 in0.0 mm 0.00 in0.0 mm
02:50 PM 38.7°F3.7°C 31.1°F-0.5°C 74% 10.4 mph NW16.7 kmh NW 10.4 mph16.7 kmh 30.26 in1024.7 mb - 0.00 in0.0 mm 0.00 in0.0 mm
02:45 PM 38.9°F3.8°C 31.6°F-0.2°C 75% 11.5 mph NW18.5 kmh NW 13.8 mph22.2 kmh 30.26 in1024.7 mb - 0.00 in0.0 mm 0.00 in0.0 mm
02:40 PM 38.7°F3.7°C 31.1°F-0.5°C 74% 6.9 mph NW11.1 kmh NW 12.7 mph20.4 kmh 30.27 in1025.1 mb - 0.00 in0.0 mm 0.00 in0.0 mm
02:30 PM 38.4°F3.6°C 31.2°F-0.4°C 75% 6.9 mph N11.1 kmh N 8.1 mph13.0 kmh 30.27 in1025.1 mb - 0.00 in0.0 mm 0.00 in0.0 mm
02:20 PM 38.4°F3.6°C 31.2°F-0.4°C 75% 5.8 mph NW9.3 kmh NW 9.2 mph14.8 kmh 30.27 in1025.1 mb - 0.00 in0.0 mm 0.00 in0.0 mm
02:15 PM 38.2°F3.4°C 31.0°F-0.6°C 75% 9.2 mph NNW14.8 kmh NNW 10.4 mph16.7 kmh 30.28 in1025.4 mb - 0.00 in0.0 mm 0.00 in0.0 mm
02:10 PM 38.3°F3.5°C 31.1°F-0.5°C 75% 6.9 mph NW11.1 kmh NW 8.1 mph13.0 kmh 30.28 in1025.4 mb - 0.00 in0.0 mm 0.00 in0.0 mm
02:00 PM 38.5°F3.6°C 31.2°F-0.4°C 75% 5.8 mph NW9.3 kmh NW 8.1 mph13.0 kmh 30.28 in1025.4 mb - 0.00 in0.0 mm 0.00 in0.0 mm
01:50 PM 38.1°F3.4°C 31.2°F-0.4°C 76% 9.2 mph NNW14.8 kmh NNW 12.7 mph20.4 kmh 30.28 in1025.4 mb - 0.00 in0.0 mm 0.00 in0.0 mm
01:45 PM 38.1°F3.4°C 31.2°F-0.4°C 76% 10.4 mph NNW16.7 kmh NNW 11.5 mph18.5 kmh 30.28 in1025.4 mb - 0.00 in0.0 mm 0.00 in0.0 mm
01:40 PM 38.3°F3.5°C 31.4°F-0.3°C 76% 12.7 mph NW20.4 kmh NW 18.4 mph29.6 kmh 30.28 in1025.4 mb - 0.00 in0.0 mm 0.00 in0.0 mm
01:30 PM 38.4°F3.6°C 31.5°F-0.3°C 76% 11.5 mph NNW18.5 kmh NNW 13.8 mph22.2 kmh 30.29 in1025.7 mb - 0.00 in0.0 mm 0.00 in0.0 mm
01:20 PM 38.5°F3.6°C 31.3°F-0.4°C 75% 11.5 mph NW18.5 kmh NW 15.0 mph24.1 kmh 30.29 in1025.7 mb - 0.00 in0.0 mm 0.00 in0.0 mm
01:15 PM 38.8°F3.8°C 31.2°F-0.4°C 74% 5.8 mph N9.3 kmh N 6.9 mph11.1 kmh 30.29 in1025.7 mb - 0.00 in0.0 mm 0.00 in0.0 mm
01:10 PM 38.7°F3.7°C 31.5°F-0.3°C 75% 9.2 mph N14.8 kmh N 13.8 mph22.2 kmh 30.29 in1025.7 mb - 0.00 in0.0 mm 0.00 in0.0 mm
01:00 PM 38.8°F3.8°C 31.2°F-0.4°C 74% 9.2 mph NW14.8 kmh NW 10.4 mph16.7 kmh 30.30 in1026.1 mb - 0.00 in0.0 mm 0.00 in0.0 mm
12:50 PM 38.5°F3.6°C 31.6°F-0.2°C 76% 11.5 mph NW18.5 kmh NW 15.0 mph24.1 kmh 30.30 in1026.1 mb - 0.00 in0.0 mm 0.00 in0.0 mm
12:45 PM 38.3°F3.5°C 31.8°F-0.1°C 77% 10.4 mph NNW16.7 kmh NNW 12.7 mph20.4 kmh 30.30 in1026.1 mb - 0.00 in0.0 mm 0.00 in0.0 mm
12:40 PM 38.2°F3.4°C 31.9°F-0.1°C 78% 11.5 mph NW18.5 kmh NW 20.7 mph33.3 kmh 30.31 in1026.4 mb - 0.00 in0.0 mm 0.00 in0.0 mm
12:30 PM 37.7°F3.2°C 31.5°F-0.3°C 78% 11.5 mph NNW18.5 kmh NNW 13.8 mph22.2 kmh 30.31 in1026.4 mb - 0.00 in0.0 mm 0.00 in0.0 mm
12:20 PM 37.8°F3.2°C 31.5°F-0.3°C 78% 10.4 mph NW16.7 kmh NW 11.5 mph18.5 kmh 30.31 in1026.4 mb - 0.00 in0.0 mm 0.00 in0.0 mm
12:15 PM 37.9°F3.3°C 31.3°F-0.4°C 77% 12.7 mph NW20.4 kmh NW 12.7 mph20.4 kmh 30.31 in1026.4 mb - 0.00 in0.0 mm 0.00 in0.0 mm
12:10 PM 38.2°F3.4°C 31.6°F-0.2°C 77% 10.4 mph NW16.7 kmh NW 18.4 mph29.6 kmh 30.31 in1026.4 mb - 0.00 in0.0 mm 0.00 in0.0 mm
12:00 PM 38.0°F3.3°C 31.1°F-0.5°C 76% 13.8 mph N22.2 kmh N 16.1 mph25.9 kmh 30.32 in1026.8 mb - 0.00 in0.0 mm 0.00 in0.0 mm
11:50 AM 38.1°F3.4°C 31.2°F-0.4°C 76% 9.2 mph NNW14.8 kmh NNW 16.1 mph25.9 kmh 30.32 in1026.8 mb - 0.00 in0.0 mm 0.00 in0.0 mm
11:45 AM 38.2°F3.4°C 31.3°F-0.4°C 76% 12.7 mph NW20.4 kmh NW 18.4 mph29.6 kmh 30.33 in1027.1 mb - 0.00 in0.0 mm 0.00 in0.0 mm
11:40 AM 37.8°F3.2°C 30.9°F-0.6°C 76% 13.8 mph NNW22.2 kmh NNW 16.1 mph25.9 kmh 30.33 in1027.1 mb - 0.00 in0.0 mm 0.00 in0.0 mm
11:30 AM 37.9°F3.3°C 31.7°F-0.2°C 78% 12.7 mph NNW20.4 kmh NNW 17.3 mph27.8 kmh 30.34 in1027.4 mb - 0.00 in0.0 mm 0.00 in0.0 mm
11:20 AM 37.5°F3.1°C 31.6°F-0.2°C 79% 11.5 mph NW18.5 kmh NW 11.5 mph18.5 kmh 30.34 in1027.4 mb - 0.00 in0.0 mm 0.00 in0.0 mm
11:15 AM 37.2°F2.9°C 31.3°F-0.4°C 79% 8.1 mph NNW13.0 kmh NNW 8.1 mph13.0 kmh 30.34 in1027.4 mb - 0.00 in0.0 mm 0.00 in0.0 mm
11:10 AM 37.0°F2.8°C 31.1°F-0.5°C 79% 8.1 mph NW13.0 kmh NW 12.7 mph20.4 kmh 30.35 in1027.8 mb - 0.00 in0.0 mm 0.00 in0.0 mm
11:00 AM 37.2°F2.9°C 31.6°F-0.2°C 80% 9.2 mph NW14.8 kmh NW 10.4 mph16.7 kmh 30.35 in1027.8 mb - 0.00 in0.0 mm 0.00 in0.0 mm
10:50 AM 37.6°F3.1°C 31.6°F-0.2°C 79% 9.2 mph NNW14.8 kmh NNW 13.8 mph22.2 kmh 30.35 in1027.8 mb - 0.00 in0.0 mm 0.00 in0.0 mm
10:45 AM 37.3°F2.9°C 31.4°F-0.3°C 79% 10.4 mph NNW16.7 kmh NNW 11.5 mph18.5 kmh 30.35 in1027.8 mb - 0.00 in0.0 mm 0.00 in0.0 mm
10:40 AM 37.1°F2.8°C 31.5°F-0.3°C 80% 6.9 mph N11.1 kmh N 9.2 mph14.8 kmh 30.35 in1027.8 mb - 0.00 in0.0 mm 0.00 in0.0 mm
10:30 AM 37.0°F2.8°C 31.7°F-0.2°C 81% 9.2 mph NW14.8 kmh NW 16.1 mph25.9 kmh 30.36 in1028.1 mb - 0.00 in0.0 mm 0.00 in0.0 mm
10:20 AM 37.1°F2.8°C 31.5°F-0.3°C 80% 9.2 mph NNW14.8 kmh NNW 12.7 mph20.4 kmh 30.36 in1028.1 mb - 0.00 in0.0 mm 0.00 in0.0 mm
10:15 AM 37.0°F2.8°C 31.4°F-0.3°C 80% 9.2 mph NNW14.8 kmh NNW 11.5 mph18.5 kmh 30.36 in1028.1 mb - 0.00 in0.0 mm 0.00 in0.0 mm
10:10 AM 37.0°F2.8°C 31.4°F-0.3°C 80% 11.5 mph NNW18.5 kmh NNW 17.3 mph27.8 kmh 30.35 in1027.8 mb - 0.00 in0.0 mm 0.00 in0.0 mm
10:00 AM 36.9°F2.7°C 31.6°F-0.2°C 81% 12.7 mph NW20.4 kmh NW 16.1 mph25.9 kmh 30.35 in1027.8 mb - 0.00 in0.0 mm 0.00 in0.0 mm
09:50 AM 36.4°F2.4°C 31.4°F-0.3°C 82% 11.5 mph NNW18.5 kmh NNW 18.4 mph29.6 kmh 30.35 in1027.8 mb - 0.00 in0.0 mm 0.00 in0.0 mm
09:45 AM 36.3°F2.4°C 31.6°F-0.2°C 83% 11.5 mph NW18.5 kmh NW 13.8 mph22.2 kmh 30.34 in1027.4 mb - 0.00 in0.0 mm 0.00 in0.0 mm
09:40 AM 36.4°F2.4°C 31.7°F-0.2°C 83% 10.4 mph NNW16.7 kmh NNW 16.1 mph25.9 kmh 30.34 in1027.4 mb - 0.00 in0.0 mm 0.00 in0.0 mm
09:30 AM 36.5°F2.5°C 31.5°F-0.3°C 82% 12.7 mph NNW20.4 kmh NNW 15.0 mph24.1 kmh 30.34 in1027.4 mb - 0.00 in0.0 mm 0.00 in0.0 mm
09:20 AM 36.4°F2.4°C 31.4°F-0.3°C 82% 11.5 mph NNW18.5 kmh NNW 16.1 mph25.9 kmh 30.34 in1027.4 mb - 0.00 in0.0 mm 0.00 in0.0 mm
09:15 AM 36.4°F2.4°C 31.4°F-0.3°C 82% 12.7 mph NW20.4 kmh NW 17.3 mph27.8 kmh 30.34 in1027.4 mb - 0.00 in0.0 mm 0.00 in0.0 mm
09:10 AM 36.2°F2.3°C 31.6°F-0.2°C 83% 13.8 mph NW22.2 kmh NW 20.7 mph33.3 kmh 30.34 in1027.4 mb - 0.00 in0.0 mm 0.00 in0.0 mm
09:00 AM 36.3°F2.4°C 31.6°F-0.2°C 83% 11.5 mph NNW18.5 kmh NNW 17.3 mph27.8 kmh 30.32 in1026.8 mb - 0.00 in0.0 mm 0.00 in0.0 mm
08:50 AM 36.5°F2.5°C 31.5°F-0.3°C 82% 12.7 mph NNW20.4 kmh NNW 13.8 mph22.2 kmh 30.32 in1026.8 mb - 0.00 in0.0 mm 0.00 in0.0 mm
08:45 AM 36.7°F2.6°C 31.7°F-0.2°C 82% 15.0 mph NW24.1 kmh NW 15.0 mph24.1 kmh 30.32 in1026.8 mb - 0.00 in0.0 mm 0.00 in0.0 mm
08:40 AM 36.7°F2.6°C 32.0°F0.0°C 83% 9.2 mph NW14.8 kmh NW 15.0 mph24.1 kmh 30.32 in1026.8 mb - 0.00 in0.0 mm 0.00 in0.0 mm
08:30 AM 36.5°F2.5°C 31.8°F-0.1°C 83% 12.7 mph NNW20.4 kmh NNW 16.1 mph25.9 kmh 30.32 in1026.8 mb - 0.00 in0.0 mm 0.00 in0.0 mm
08:20 AM 36.5°F2.5°C 32.1°F0.1°C 84% 16.1 mph NW25.9 kmh NW 19.6 mph31.5 kmh 30.31 in1026.4 mb - 0.00 in0.0 mm 0.00 in0.0 mm
08:15 AM 36.6°F2.6°C 32.2°F0.1°C 84% 10.4 mph NNW16.7 kmh NNW 15.0 mph24.1 kmh 30.31 in1026.4 mb - 0.00 in0.0 mm 0.00 in0.0 mm
08:10 AM 36.8°F2.7°C 32.4°F0.2°C 84% 10.4 mph NW16.7 kmh NW 13.8 mph22.2 kmh 30.31 in1026.4 mb - 0.00 in0.0 mm 0.00 in0.0 mm
08:00 AM 36.8°F2.7°C 32.4°F0.2°C 84% 10.4 mph NNW16.7 kmh NNW 13.8 mph22.2 kmh 30.30 in1026.1 mb - 0.00 in0.0 mm 0.00 in0.0 mm
07:50 AM 36.8°F2.7°C 32.4°F0.2°C 84% 13.8 mph NW22.2 kmh NW 16.1 mph25.9 kmh 30.30 in1026.1 mb - 0.00 in0.0 mm 0.00 in0.0 mm
07:45 AM 36.7°F2.6°C 32.3°F0.2°C 84% 11.5 mph NNW18.5 kmh NNW 13.8 mph22.2 kmh 30.30 in1026.1 mb - 0.00 in0.0 mm 0.00 in0.0 mm
07:40 AM 36.8°F2.7°C 32.4°F0.2°C 84% 12.7 mph NW20.4 kmh NW 18.4 mph29.6 kmh 30.29 in1025.7 mb - 0.00 in0.0 mm 0.00 in0.0 mm
07:30 AM 37.0°F2.8°C 32.6°F0.3°C 84% 11.5 mph NW18.5 kmh NW 17.3 mph27.8 kmh 30.29 in1025.7 mb - 0.00 in0.0 mm 0.00 in0.0 mm
07:20 AM 36.9°F2.7°C 32.6°F0.3°C 84% 12.7 mph NNW20.4 kmh NNW 15.0 mph24.1 kmh 30.28 in1025.4 mb - 0.00 in0.0 mm 0.00 in0.0 mm
07:15 AM 36.8°F2.7°C 32.7°F0.4°C 85% 8.1 mph NW13.0 kmh NW 12.7 mph20.4 kmh 30.28 in1025.4 mb - 0.00 in0.0 mm 0.00 in0.0 mm
07:10 AM 36.9°F2.7°C 32.5°F0.3°C 84% 10.4 mph NW16.7 kmh NW 10.4 mph16.7 kmh 30.28 in1025.4 mb - 0.00 in0.0 mm 0.00 in0.0 mm
07:00 AM 37.0°F2.8°C 32.6°F0.3°C 84% 13.8 mph NNW22.2 kmh NNW 20.7 mph33.3 kmh 30.28 in1025.4 mb - 0.00 in0.0 mm 0.00 in0.0 mm
06:50 AM 37.1°F2.8°C 32.7°F0.4°C 84% 13.8 mph NW22.2 kmh NW 18.4 mph29.6 kmh 30.28 in1025.4 mb - 0.00 in0.0 mm 0.00 in0.0 mm
06:45 AM 37.3°F2.9°C 32.9°F0.5°C 84% 11.5 mph NNW18.5 kmh NNW 15.0 mph24.1 kmh 30.28 in1025.4 mb - 0.00 in0.0 mm 0.00 in0.0 mm
06:40 AM 37.4°F3.0°C 33.0°F0.6°C 84% 13.8 mph NW22.2 kmh NW 18.4 mph29.6 kmh 30.28 in1025.4 mb - 0.00 in0.0 mm 0.00 in0.0 mm
06:30 AM 37.6°F3.1°C 33.2°F0.7°C 84% 13.8 mph NNW22.2 kmh NNW 17.3 mph27.8 kmh 30.27 in1025.1 mb - 0.00 in0.0 mm 0.00 in0.0 mm
06:20 AM 37.7°F3.2°C 33.3°F0.7°C 84% 9.2 mph NNW14.8 kmh NNW 15.0 mph24.1 kmh 30.27 in1025.1 mb - 0.00 in0.0 mm 0.00 in0.0 mm
06:15 AM 37.6°F3.1°C 33.2°F0.7°C 84% 10.4 mph NNW16.7 kmh NNW 15.0 mph24.1 kmh 30.27 in1025.1 mb - 0.00 in0.0 mm 0.00 in0.0 mm
06:10 AM 37.7°F3.2°C 33.3°F0.7°C 84% 13.8 mph NNW22.2 kmh NNW 17.3 mph27.8 kmh 30.27 in1025.1 mb - 0.00 in0.0 mm 0.00 in0.0 mm
06:00 AM 38.0°F3.3°C 33.3°F0.7°C 83% 12.7 mph NW20.4 kmh NW 12.7 mph20.4 kmh 30.27 in1025.1 mb - 0.00 in0.0 mm 0.00 in0.0 mm
05:50 AM 38.2°F3.4°C 33.5°F0.8°C 83% 13.8 mph NNW22.2 kmh NNW 16.1 mph25.9 kmh 30.26 in1024.7 mb - 0.00 in0.0 mm 0.00 in0.0 mm
05:45 AM 38.3°F3.5°C 33.6°F0.9°C 83% 15.0 mph NW24.1 kmh NW 23.0 mph37.0 kmh 30.26 in1024.7 mb - 0.00 in0.0 mm 0.00 in0.0 mm
05:40 AM 38.1°F3.4°C 33.7°F0.9°C 84% 8.1 mph NW13.0 kmh NW 10.4 mph16.7 kmh 30.26 in1024.7 mb - 0.00 in0.0 mm 0.00 in0.0 mm
05:30 AM 38.2°F3.4°C 33.8°F1.0°C 84% 15.0 mph NNW24.1 kmh NNW 16.1 mph25.9 kmh 30.25 in1024.4 mb - 0.00 in0.0 mm 0.00 in0.0 mm
05:20 AM 38.1°F3.4°C 33.7°F0.9°C 84% 11.5 mph NW18.5 kmh NW 13.8 mph22.2 kmh 30.25 in1024.4 mb - 0.00 in0.0 mm 0.00 in0.0 mm
05:15 AM 38.2°F3.4°C 34.1°F1.2°C 85% 10.4 mph NW16.7 kmh NW 13.8 mph22.2 kmh 30.25 in1024.4 mb - 0.00 in0.0 mm 0.00 in0.0 mm
05:10 AM 38.2°F3.4°C 34.1°F1.2°C 85% 11.5 mph NW18.5 kmh NW 11.5 mph18.5 kmh 30.25 in1024.4 mb - 0.00 in0.0 mm 0.00 in0.0 mm
05:00 AM 38.5°F3.6°C 34.4°F1.3°C 85% 6.9 mph NW11.1 kmh NW 12.7 mph20.4 kmh 30.24 in1024.0 mb - 0.00 in0.0 mm 0.00 in0.0 mm
04:50 AM 38.7°F3.7°C 34.3°F1.3°C 84% 12.7 mph NW20.4 kmh NW 17.3 mph27.8 kmh 30.24 in1024.0 mb - 0.00 in0.0 mm 0.00 in0.0 mm
04:45 AM 38.8°F3.8°C 34.4°F1.3°C 84% 11.5 mph NW18.5 kmh NW 13.8 mph22.2 kmh 30.24 in1024.0 mb - 0.00 in0.0 mm 0.00 in0.0 mm
04:40 AM 38.7°F3.7°C 34.3°F1.3°C 84% 8.1 mph NW13.0 kmh NW 9.2 mph14.8 kmh 30.24 in1024.0 mb - 0.00 in0.0 mm 0.00 in0.0 mm
04:30 AM 38.8°F3.8°C 34.4°F1.3°C 84% 10.4 mph NW16.7 kmh NW 11.5 mph18.5 kmh 30.23 in1023.7 mb - 0.00 in0.0 mm 0.00 in0.0 mm
04:20 AM 38.8°F3.8°C 34.4°F1.3°C 84% 12.7 mph NW20.4 kmh NW 15.0 mph24.1 kmh 30.23 in1023.7 mb - 0.00 in0.0 mm 0.00 in0.0 mm
04:15 AM 38.8°F3.8°C 34.4°F1.3°C 84% 10.4 mph NW16.7 kmh NW 15.0 mph24.1 kmh 30.23 in1023.7 mb - 0.00 in0.0 mm 0.00 in0.0 mm
04:10 AM 38.9°F3.8°C 34.5°F1.4°C 84% 8.1 mph NNW13.0 kmh NNW 11.5 mph18.5 kmh 30.22 in1023.4 mb - 0.00 in0.0 mm 0.00 in0.0 mm
04:00 AM 39.2°F4.0°C 34.5°F1.4°C 83% 10.4 mph NW16.7 kmh NW 13.8 mph22.2 kmh 30.22 in1023.4 mb - 0.00 in0.0 mm 0.00 in0.0 mm
03:50 AM 39.4°F4.1°C 34.7°F1.5°C 83% 6.9 mph NW11.1 kmh NW 9.2 mph14.8 kmh 30.22 in1023.4 mb - 0.00 in0.0 mm 0.00 in0.0 mm
03:45 AM 39.4°F4.1°C 34.7°F1.5°C 83% 6.9 mph NW11.1 kmh NW 10.4 mph16.7 kmh 30.22 in1023.4 mb - 0.00 in0.0 mm 0.00 in0.0 mm
03:40 AM 39.4°F4.1°C 34.4°F1.3°C 82% 8.1 mph NNW13.0 kmh NNW 10.4 mph16.7 kmh 30.21 in1023.0 mb - 0.00 in0.0 mm 0.00 in0.0 mm
03:30 AM 39.6°F4.2°C 34.6°F1.4°C 82% 9.2 mph N14.8 kmh N 12.7 mph20.4 kmh 30.21 in1023.0 mb - 0.00 in0.0 mm 0.00 in0.0 mm
03:20 AM 39.7°F4.3°C 34.7°F1.5°C 82% 10.4 mph NNW16.7 kmh NNW 13.8 mph22.2 kmh 30.20 in1022.7 mb - 0.00 in0.0 mm 0.00 in0.0 mm
03:15 AM 39.7°F4.3°C 34.7°F1.5°C 82% 10.4 mph NW16.7 kmh NW 11.5 mph18.5 kmh 30.20 in1022.7 mb - 0.00 in0.0 mm 0.00 in0.0 mm
03:10 AM 39.8°F4.3°C 34.8°F1.6°C 82% 12.7 mph NNW20.4 kmh NNW 15.0 mph24.1 kmh 30.20 in1022.7 mb - 0.00 in0.0 mm 0.00 in0.0 mm
03:00 AM 40.0°F4.4°C 34.9°F1.6°C 82% 15.0 mph NW24.1 kmh NW 18.4 mph29.6 kmh 30.20 in1022.7 mb - 0.00 in0.0 mm 0.00 in0.0 mm
02:50 AM 40.2°F4.6°C 35.1°F1.7°C 82% 9.2 mph NNW14.8 kmh NNW 12.7 mph20.4 kmh 30.19 in1022.4 mb - 0.00 in0.0 mm 0.00 in0.0 mm
02:45 AM 40.3°F4.6°C 35.2°F1.8°C 82% 12.7 mph NW20.4 kmh NW 17.3 mph27.8 kmh 30.19 in1022.4 mb - 0.00 in0.0 mm 0.00 in0.0 mm
02:40 AM 40.4°F4.7°C 35.3°F1.8°C 82% 13.8 mph NW22.2 kmh NW 16.1 mph25.9 kmh 30.19 in1022.4 mb - 0.00 in0.0 mm 0.00 in0.0 mm
02:30 AM 40.6°F4.8°C 35.3°F1.8°C 81% 10.4 mph NW16.7 kmh NW 12.7 mph20.4 kmh 30.18 in1022.0 mb - 0.00 in0.0 mm 0.00 in0.0 mm
02:20 AM 40.9°F4.9°C 35.5°F1.9°C 81% 12.7 mph N20.4 kmh N 13.8 mph22.2 kmh 30.18 in1022.0 mb - 0.00 in0.0 mm 0.00 in0.0 mm
02:15 AM 41.1°F5.1°C 35.7°F2.1°C 81% 11.5 mph NNW18.5 kmh NNW 11.5 mph18.5 kmh 30.17 in1021.7 mb - 0.00 in0.0 mm 0.00 in0.0 mm
02:10 AM 41.3°F5.2°C 35.9°F2.2°C 81% 6.9 mph N11.1 kmh N 13.8 mph22.2 kmh 30.17 in1021.7 mb - 0.00 in0.0 mm 0.00 in0.0 mm
02:00 AM 41.4°F5.2°C 36.0°F2.2°C 81% 9.2 mph N14.8 kmh N 12.7 mph20.4 kmh 30.17 in1021.7 mb - 0.00 in0.0 mm 0.00 in0.0 mm
01:50 AM 41.6°F5.3°C 35.9°F2.2°C 80% 13.8 mph NNW22.2 kmh NNW 18.4 mph29.6 kmh 30.16 in1021.3 mb - 0.00 in0.0 mm 0.00 in0.0 mm
01:45 AM 41.8°F5.4°C 36.1°F2.3°C 80% 13.8 mph N22.2 kmh N 18.4 mph29.6 kmh 30.16 in1021.3 mb - 0.00 in0.0 mm 0.00 in0.0 mm
01:40 AM 42.0°F5.6°C 36.3°F2.4°C 80% 13.8 mph N22.2 kmh N 20.7 mph33.3 kmh 30.16 in1021.3 mb - 0.00 in0.0 mm 0.00 in0.0 mm
01:30 AM 42.2°F5.7°C 36.5°F2.5°C 80% 12.7 mph NNW20.4 kmh NNW 15.0 mph24.1 kmh 30.16 in1021.3 mb - 0.00 in0.0 mm 0.00 in0.0 mm
01:20 AM 42.2°F5.7°C 36.5°F2.5°C 80% 8.1 mph N13.0 kmh N 15.0 mph24.1 kmh 30.15 in1021.0 mb - 0.00 in0.0 mm 0.00 in0.0 mm
01:15 AM 42.2°F5.7°C 36.8°F2.7°C 81% 9.2 mph NNW14.8 kmh NNW 12.7 mph20.4 kmh 30.15 in1021.0 mb - 0.00 in0.0 mm 0.00 in0.0 mm
01:10 AM 42.2°F5.7°C 36.5°F2.5°C 80% 8.1 mph NNW13.0 kmh NNW 12.7 mph20.4 kmh 30.15 in1021.0 mb - 0.00 in0.0 mm 0.00 in0.0 mm
01:00 AM 42.2°F5.7°C 36.5°F2.5°C 80% 12.7 mph NNW20.4 kmh NNW 18.4 mph29.6 kmh 30.15 in1021.0 mb - 0.00 in0.0 mm 0.00 in0.0 mm
12:50 AM 42.2°F5.7°C 36.5°F2.5°C 80% 10.4 mph NNW16.7 kmh NNW 11.5 mph18.5 kmh 30.14 in1020.7 mb - 0.00 in0.0 mm 0.00 in0.0 mm
12:45 AM 42.2°F5.7°C 36.5°F2.5°C 80% 12.7 mph NNW20.4 kmh NNW 12.7 mph20.4 kmh 30.14 in1020.7 mb - 0.00 in0.0 mm 0.00 in0.0 mm
12:40 AM 42.2°F5.7°C 36.5°F2.5°C 80% 11.5 mph N18.5 kmh N 12.7 mph20.4 kmh 30.14 in1020.7 mb - 0.00 in0.0 mm 0.00 in0.0 mm
12:30 AM 42.2°F5.7°C 36.8°F2.7°C 81% 13.8 mph NNW22.2 kmh NNW 13.8 mph22.2 kmh 30.14 in1020.7 mb - 0.00 in0.0 mm 0.00 in0.0 mm
12:20 AM 42.2°F5.7°C 36.8°F2.7°C 81% 12.7 mph N20.4 kmh N 15.0 mph24.1 kmh 30.14 in1020.7 mb - 0.00 in0.0 mm 0.00 in0.0 mm
12:15 AM 42.2°F5.7°C 36.8°F2.7°C 81% 10.4 mph NW16.7 kmh NW 12.7 mph20.4 kmh 30.14 in1020.7 mb - 0.00 in0.0 mm 0.00 in0.0 mm
12:10 AM 42.2°F5.7°C 36.5°F2.5°C 80% 9.2 mph N14.8 kmh N 11.5 mph18.5 kmh 30.14 in1020.7 mb - 0.00 in0.0 mm 0.00 in0.0 mm
12:00 AM 42.6°F5.9°C 36.8°F2.7°C 80% 11.5 mph NNW18.5 kmh NNW 17.3 mph27.8 kmh 30.13 in1020.3 mb - 0.00 in0.0 mm 0.00 in0.0 mm